sensor_id;sensor_type;location;lat;lon;timestamp;temperature;humidity
65291;SHT30;51893;59.754;10.110;2023-11-21T00:00:08;-0.07;79.73
65291;SHT30;51893;59.754;10.110;2023-11-21T00:03:01;-0.12;79.89
65291;SHT30;51893;59.754;10.110;2023-11-21T00:05:29;-0.14;79.84
65291;SHT30;51893;59.754;10.110;2023-11-21T00:07:57;-0.15;79.46
65291;SHT30;51893;59.754;10.110;2023-11-21T00:10:25;-0.18;79.20
65291;SHT30;51893;59.754;10.110;2023-11-21T00:12:54;-0.19;79.07
65291;SHT30;51893;59.754;10.110;2023-11-21T00:15:23;-0.28;78.91
65291;SHT30;51893;59.754;10.110;2023-11-21T00:17:51;-0.36;79.00
65291;SHT30;51893;59.754;10.110;2023-11-21T00:20:20;-0.43;79.05
65291;SHT30;51893;59.754;10.110;2023-11-21T00:22:48;-0.48;79.08
65291;SHT30;51893;59.754;10.110;2023-11-21T00:25:16;-0.67;79.43
65291;SHT30;51893;59.754;10.110;2023-11-21T00:27:45;-0.59;79.80
65291;SHT30;51893;59.754;10.110;2023-11-21T00:30:13;-0.52;79.79
65291;SHT30;51893;59.754;10.110;2023-11-21T00:32:46;-0.54;79.79
65291;SHT30;51893;59.754;10.110;2023-11-21T00:35:14;-0.49;79.88
65291;SHT30;51893;59.754;10.110;2023-11-21T00:37:43;-0.40;79.81
65291;SHT30;51893;59.754;10.110;2023-11-21T00:40:11;-0.39;79.70
65291;SHT30;51893;59.754;10.110;2023-11-21T00:42:41;-0.39;79.65
65291;SHT30;51893;59.754;10.110;2023-11-21T00:45:09;-0.37;79.60
65291;SHT30;51893;59.754;10.110;2023-11-21T00:47:40;-0.35;79.58
65291;SHT30;51893;59.754;10.110;2023-11-21T00:50:09;-0.35;79.64
65291;SHT30;51893;59.754;10.110;2023-11-21T00:52:37;-0.42;79.58
65291;SHT30;51893;59.754;10.110;2023-11-21T00:55:09;-0.56;79.67
65291;SHT30;51893;59.754;10.110;2023-11-21T00:57:40;-0.66;79.70
65291;SHT30;51893;59.754;10.110;2023-11-21T01:00:09;-0.82;79.81
65291;SHT30;51893;59.754;10.110;2023-11-21T01:02:42;-0.87;79.90
65291;SHT30;51893;59.754;10.110;2023-11-21T01:05:14;-0.81;79.96
65291;SHT30;51893;59.754;10.110;2023-11-21T01:07:43;-0.76;79.92
65291;SHT30;51893;59.754;10.110;2023-11-21T01:10:11;-0.77;79.79
65291;SHT30;51893;59.754;10.110;2023-11-21T01:12:39;-0.76;79.48
65291;SHT30;51893;59.754;10.110;2023-11-21T01:15:07;-0.76;79.30
65291;SHT30;51893;59.754;10.110;2023-11-21T01:17:36;-0.69;79.06
65291;SHT30;51893;59.754;10.110;2023-11-21T01:20:08;-0.63;78.72
65291;SHT30;51893;59.754;10.110;2023-11-21T01:22:41;-0.68;78.36
65291;SHT30;51893;59.754;10.110;2023-11-21T01:25:12;-0.70;78.60
65291;SHT30;51893;59.754;10.110;2023-11-21T01:27:42;-0.65;78.85
65291;SHT30;51893;59.754;10.110;2023-11-21T01:30:11;-0.70;78.90
65291;SHT30;51893;59.754;10.110;2023-11-21T01:32:39;-0.81;79.06
65291;SHT30;51893;59.754;10.110;2023-11-21T01:35:08;-0.90;79.12
65291;SHT30;51893;59.754;10.110;2023-11-21T01:37:38;-0.98;79.09
65291;SHT30;51893;59.754;10.110;2023-11-21T01:40:07;-1.03;79.17
65291;SHT30;51893;59.754;10.110;2023-11-21T01:42:43;-1.10;79.30
65291;SHT30;51893;59.754;10.110;2023-11-21T01:45:13;-1.16;79.51
65291;SHT30;51893;59.754;10.110;2023-11-21T01:47:42;-1.10;79.90
65291;SHT30;51893;59.754;10.110;2023-11-21T01:50:20;-1.02;79.79
65291;SHT30;51893;59.754;10.110;2023-11-21T01:52:50;-0.93;79.57
65291;SHT30;51893;59.754;10.110;2023-11-21T01:55:20;-0.90;79.49
65291;SHT30;51893;59.754;10.110;2023-11-21T01:57:55;-0.89;79.50
65291;SHT30;51893;59.754;10.110;2023-11-21T02:00:26;-0.93;79.66
65291;SHT30;51893;59.754;10.110;2023-11-21T02:02:58;-0.92;79.89
65291;SHT30;51893;59.754;10.110;2023-11-21T02:05:29;-1.00;79.83
65291;SHT30;51893;59.754;10.110;2023-11-21T02:07:57;-1.03;79.94
65291;SHT30;51893;59.754;10.110;2023-11-21T02:10:26;-1.08;79.89
65291;SHT30;51893;59.754;10.110;2023-11-21T02:12:54;-1.11;80.02
65291;SHT30;51893;59.754;10.110;2023-11-21T02:15:24;-1.10;80.17
65291;SHT30;51893;59.754;10.110;2023-11-21T02:17:58;-1.11;80.10
65291;SHT30;51893;59.754;10.110;2023-11-21T02:20:27;-1.11;80.01
65291;SHT30;51893;59.754;10.110;2023-11-21T02:22:58;-1.06;80.04
65291;SHT30;51893;59.754;10.110;2023-11-21T02:25:29;-1.04;80.00
65291;SHT30;51893;59.754;10.110;2023-11-21T02:28:01;-1.05;79.79
65291;SHT30;51893;59.754;10.110;2023-11-21T02:30:31;-1.07;79.60
65291;SHT30;51893;59.754;10.110;2023-11-21T02:33:02;-1.06;79.47
65291;SHT30;51893;59.754;10.110;2023-11-21T02:35:30;-1.10;79.33
65291;SHT30;51893;59.754;10.110;2023-11-21T02:37:59;-1.08;79.31
65291;SHT30;51893;59.754;10.110;2023-11-21T02:40:28;-1.19;79.20
65291;SHT30;51893;59.754;10.110;2023-11-21T02:42:57;-1.22;79.31
65291;SHT30;51893;59.754;10.110;2023-11-21T02:45:27;-1.28;79.24
65291;SHT30;51893;59.754;10.110;2023-11-21T02:47:55;-1.31;79.42
65291;SHT30;51893;59.754;10.110;2023-11-21T02:50:26;-1.35;79.77
65291;SHT30;51893;59.754;10.110;2023-11-21T02:52:55;-1.36;80.01
65291;SHT30;51893;59.754;10.110;2023-11-21T02:55:26;-1.34;80.18
65291;SHT30;51893;59.754;10.110;2023-11-21T02:57:58;-1.30;80.40
65291;SHT30;51893;59.754;10.110;2023-11-21T03:00:28;-1.29;80.48
65291;SHT30;51893;59.754;10.110;2023-11-21T03:02:56;-1.19;80.60
65291;SHT30;51893;59.754;10.110;2023-11-21T03:05:29;-1.12;80.58
65291;SHT30;51893;59.754;10.110;2023-11-21T03:07:58;-1.14;80.53
65291;SHT30;51893;59.754;10.110;2023-11-21T03:10:27;-1.17;80.51
65291;SHT30;51893;59.754;10.110;2023-11-21T03:12:55;-1.20;80.61
65291;SHT30;51893;59.754;10.110;2023-11-21T03:15:25;-1.25;80.80
65291;SHT30;51893;59.754;10.110;2023-11-21T03:17:53;-1.20;80.97
65291;SHT30;51893;59.754;10.110;2023-11-21T03:20:21;-1.17;80.90
65291;SHT30;51893;59.754;10.110;2023-11-21T03:22:49;-1.14;80.91
65291;SHT30;51893;59.754;10.110;2023-11-21T03:25:17;-1.11;80.88
65291;SHT30;51893;59.754;10.110;2023-11-21T03:27:45;-1.13;80.88
65291;SHT30;51893;59.754;10.110;2023-11-21T03:30:14;-1.06;80.95
65291;SHT30;51893;59.754;10.110;2023-11-21T03:32:43;-0.99;80.88
65291;SHT30;51893;59.754;10.110;2023-11-21T03:35:18;-1.06;80.69
65291;SHT30;51893;59.754;10.110;2023-11-21T03:37:48;-1.09;80.77
65291;SHT30;51893;59.754;10.110;2023-11-21T03:40:17;-1.07;80.74
65291;SHT30;51893;59.754;10.110;2023-11-21T03:42:45;-1.08;80.51
65291;SHT30;51893;59.754;10.110;2023-11-21T03:45:13;-1.11;80.36
65291;SHT30;51893;59.754;10.110;2023-11-21T03:47:42;-1.11;80.29
65291;SHT30;51893;59.754;10.110;2023-11-21T03:50:10;-1.05;80.22
65291;SHT30;51893;59.754;10.110;2023-11-21T03:52:38;-1.04;80.07
65291;SHT30;51893;59.754;10.110;2023-11-21T03:55:07;-1.06;80.16
65291;SHT30;51893;59.754;10.110;2023-11-21T03:57:36;-1.14;80.28
65291;SHT30;51893;59.754;10.110;2023-11-21T04:00:04;-1.17;80.35
65291;SHT30;51893;59.754;10.110;2023-11-21T04:02:36;-1.18;80.41
65291;SHT30;51893;59.754;10.110;2023-11-21T04:05:07;-1.20;80.45
65291;SHT30;51893;59.754;10.110;2023-11-21T04:07:35;-1.22;80.45
65291;SHT30;51893;59.754;10.110;2023-11-21T04:10:06;-1.20;80.49
65291;SHT30;51893;59.754;10.110;2023-11-21T04:12:40;-1.17;80.41
65291;SHT30;51893;59.754;10.110;2023-11-21T04:15:08;-1.09;80.45
65291;SHT30;51893;59.754;10.110;2023-11-21T04:17:38;-1.08;80.21
65291;SHT30;51893;59.754;10.110;2023-11-21T04:20:08;-1.07;80.04
65291;SHT30;51893;59.754;10.110;2023-11-21T04:22:39;-1.04;79.86
65291;SHT30;51893;59.754;10.110;2023-11-21T04:25:15;-1.00;79.86
65291;SHT30;51893;59.754;10.110;2023-11-21T04:27:44;-0.99;79.78
65291;SHT30;51893;59.754;10.110;2023-11-21T04:30:14;-1.07;79.87
65291;SHT30;51893;59.754;10.110;2023-11-21T04:32:43;-1.14;79.80
65291;SHT30;51893;59.754;10.110;2023-11-21T04:35:11;-1.20;79.84
65291;SHT30;51893;59.754;10.110;2023-11-21T04:37:40;-1.29;79.95
65291;SHT30;51893;59.754;10.110;2023-11-21T04:40:08;-1.40;79.96
65291;SHT30;51893;59.754;10.110;2023-11-21T04:42:38;-1.42;80.12
65291;SHT30;51893;59.754;10.110;2023-11-21T04:45:07;-1.42;80.10
65291;SHT30;51893;59.754;10.110;2023-11-21T04:47:37;-1.43;80.10
65291;SHT30;51893;59.754;10.110;2023-11-21T04:50:09;-1.48;80.17
65291;SHT30;51893;59.754;10.110;2023-11-21T04:52:37;-1.48;80.21
65291;SHT30;51893;59.754;10.110;2023-11-21T04:55:05;-1.46;80.09
65291;SHT30;51893;59.754;10.110;2023-11-21T04:57:38;-1.43;80.16
65291;SHT30;51893;59.754;10.110;2023-11-21T05:00:10;-1.41;80.04
65291;SHT30;51893;59.754;10.110;2023-11-21T05:02:40;-1.48;79.73
65291;SHT30;51893;59.754;10.110;2023-11-21T05:05:10;-1.57;79.77
65291;SHT30;51893;59.754;10.110;2023-11-21T05:07:39;-1.52;79.67
65291;SHT30;51893;59.754;10.110;2023-11-21T05:10:09;-1.51;79.64
65291;SHT30;51893;59.754;10.110;2023-11-21T05:12:42;-1.55;79.39
65291;SHT30;51893;59.754;10.110;2023-11-21T05:15:13;-1.63;79.29
65291;SHT30;51893;59.754;10.110;2023-11-21T05:17:43;-1.72;79.37
65291;SHT30;51893;59.754;10.110;2023-11-21T05:20:16;-1.77;79.65
65291;SHT30;51893;59.754;10.110;2023-11-21T05:22:49;-1.72;79.74
65291;SHT30;51893;59.754;10.110;2023-11-21T05:25:18;-1.75;79.81
65291;SHT30;51893;59.754;10.110;2023-11-21T05:27:47;-1.77;79.90
65291;SHT30;51893;59.754;10.110;2023-11-21T05:30:15;-1.70;79.91
65291;SHT30;51893;59.754;10.110;2023-11-21T05:32:44;-1.62;79.89
65291;SHT30;51893;59.754;10.110;2023-11-21T05:35:14;-1.62;79.99
65291;SHT30;51893;59.754;10.110;2023-11-21T05:37:45;-1.51;80.01
65291;SHT30;51893;59.754;10.110;2023-11-21T05:40:14;-1.53;79.87
65291;SHT30;51893;59.754;10.110;2023-11-21T05:42:45;-1.60;79.88
65291;SHT30;51893;59.754;10.110;2023-11-21T05:45:14;-1.56;80.12
65291;SHT30;51893;59.754;10.110;2023-11-21T05:47:43;-1.47;79.97
65291;SHT30;51893;59.754;10.110;2023-11-21T05:50:16;-1.49;79.91
65291;SHT30;51893;59.754;10.110;2023-11-21T05:52:46;-1.49;80.13
65291;SHT30;51893;59.754;10.110;2023-11-21T05:55:16;-1.45;80.24
65291;SHT30;51893;59.754;10.110;2023-11-21T05:57:44;-1.47;80.27
65291;SHT30;51893;59.754;10.110;2023-11-21T06:00:14;-1.51;80.45
65291;SHT30;51893;59.754;10.110;2023-11-21T06:02:53;-1.57;80.75
65291;SHT30;51893;59.754;10.110;2023-11-21T06:05:23;-1.60;80.81
65291;SHT30;51893;59.754;10.110;2023-11-21T06:07:54;-1.62;81.01
65291;SHT30;51893;59.754;10.110;2023-11-21T06:10:27;-1.53;81.08
65291;SHT30;51893;59.754;10.110;2023-11-21T06:12:57;-1.46;80.96
65291;SHT30;51893;59.754;10.110;2023-11-21T06:15:30;-1.43;80.80
65291;SHT30;51893;59.754;10.110;2023-11-21T06:18:01;-1.35;80.75
65291;SHT30;51893;59.754;10.110;2023-11-21T06:20:30;-1.38;80.77
65291;SHT30;51893;59.754;10.110;2023-11-21T06:22:57;-1.43;80.74
65291;SHT30;51893;59.754;10.110;2023-11-21T06:25:28;-1.43;80.67
65291;SHT30;51893;59.754;10.110;2023-11-21T06:27:56;-1.49;80.43
65291;SHT30;51893;59.754;10.110;2023-11-21T06:30:26;-1.45;80.43
65291;SHT30;51893;59.754;10.110;2023-11-21T06:32:54;-1.47;80.28
65291;SHT30;51893;59.754;10.110;2023-11-21T06:35:23;-1.52;80.17
65291;SHT30;51893;59.754;10.110;2023-11-21T06:37:52;-1.65;79.93
65291;SHT30;51893;59.754;10.110;2023-11-21T06:40:20;-1.76;79.90
65291;SHT30;51893;59.754;10.110;2023-11-21T06:42:49;-1.83;79.96
65291;SHT30;51893;59.754;10.110;2023-11-21T06:45:18;-1.85;79.81
65291;SHT30;51893;59.754;10.110;2023-11-21T06:47:50;-1.82;79.47
65291;SHT30;51893;59.754;10.110;2023-11-21T06:50:19;-1.77;79.51
65291;SHT30;51893;59.754;10.110;2023-11-21T06:52:55;-1.68;79.60
65291;SHT30;51893;59.754;10.110;2023-11-21T06:55:23;-1.64;79.60
65291;SHT30;51893;59.754;10.110;2023-11-21T06:57:51;-1.64;79.72
65291;SHT30;51893;59.754;10.110;2023-11-21T07:00:19;-1.61;80.00
65291;SHT30;51893;59.754;10.110;2023-11-21T07:02:49;-1.55;80.25
65291;SHT30;51893;59.754;10.110;2023-11-21T07:05:18;-1.52;80.29
65291;SHT30;51893;59.754;10.110;2023-11-21T07:07:49;-1.55;80.37
65291;SHT30;51893;59.754;10.110;2023-11-21T07:10:18;-1.62;80.34
65291;SHT30;51893;59.754;10.110;2023-11-21T07:12:46;-1.63;80.57
65291;SHT30;51893;59.754;10.110;2023-11-21T07:15:15;-1.59;80.64
65291;SHT30;51893;59.754;10.110;2023-11-21T07:17:43;-1.63;80.67
65291;SHT30;51893;59.754;10.110;2023-11-21T07:20:12;-1.67;80.77
65291;SHT30;51893;59.754;10.110;2023-11-21T07:22:45;-1.69;80.90
65291;SHT30;51893;59.754;10.110;2023-11-21T07:25:13;-1.68;80.86
65291;SHT30;51893;59.754;10.110;2023-11-21T07:27:41;-1.60;80.90
65291;SHT30;51893;59.754;10.110;2023-11-21T07:30:10;-1.62;80.78
65291;SHT30;51893;59.754;10.110;2023-11-21T07:32:40;-1.65;80.93
65291;SHT30;51893;59.754;10.110;2023-11-21T07:35:08;-1.51;81.06
65291;SHT30;51893;59.754;10.110;2023-11-21T07:37:37;-1.43;80.84
65291;SHT30;51893;59.754;10.110;2023-11-21T07:40:07;-1.45;80.76
65291;SHT30;51893;59.754;10.110;2023-11-21T07:42:38;-1.47;80.76
65291;SHT30;51893;59.754;10.110;2023-11-21T07:45:06;-1.45;80.87
65291;SHT30;51893;59.754;10.110;2023-11-21T07:47:36;-1.38;80.86
65291;SHT30;51893;59.754;10.110;2023-11-21T07:50:08;-1.38;80.81
65291;SHT30;51893;59.754;10.110;2023-11-21T07:52:38;-1.43;80.92
65291;SHT30;51893;59.754;10.110;2023-11-21T07:55:08;-1.46;81.11
65291;SHT30;51893;59.754;10.110;2023-11-21T07:57:37;-1.41;81.29
65291;SHT30;51893;59.754;10.110;2023-11-21T08:00:06;-1.38;81.30
65291;SHT30;51893;59.754;10.110;2023-11-21T08:02:40;-1.37;81.38
65291;SHT30;51893;59.754;10.110;2023-11-21T08:05:10;-1.23;81.44
65291;SHT30;51893;59.754;10.110;2023-11-21T08:07:51;-1.11;81.26
65291;SHT30;51893;59.754;10.110;2023-11-21T08:10:20;-1.14;81.23
65291;SHT30;51893;59.754;10.110;2023-11-21T08:12:49;-1.09;81.31
65291;SHT30;51893;59.754;10.110;2023-11-21T08:15:18;-1.14;81.48
65291;SHT30;51893;59.754;10.110;2023-11-21T08:17:46;-1.11;81.72
65291;SHT30;51893;59.754;10.110;2023-11-21T08:20:16;-1.07;81.81
65291;SHT30;51893;59.754;10.110;2023-11-21T08:22:45;-1.06;81.91
65291;SHT30;51893;59.754;10.110;2023-11-21T08:25:15;-1.01;82.07
65291;SHT30;51893;59.754;10.110;2023-11-21T08:27:48;-1.00;82.10
65291;SHT30;51893;59.754;10.110;2023-11-21T08:30:17;-1.00;82.16
65291;SHT30;51893;59.754;10.110;2023-11-21T08:32:47;-0.98;82.20
65291;SHT30;51893;59.754;10.110;2023-11-21T08:35:15;-0.96;82.25
65291;SHT30;51893;59.754;10.110;2023-11-21T08:37:44;-0.99;82.27
65291;SHT30;51893;59.754;10.110;2023-11-21T08:40:12;-1.00;82.39
65291;SHT30;51893;59.754;10.110;2023-11-21T08:42:45;-0.98;82.53
65291;SHT30;51893;59.754;10.110;2023-11-21T08:45:14;-0.87;82.61
65291;SHT30;51893;59.754;10.110;2023-11-21T08:47:45;-0.78;82.52
65291;SHT30;51893;59.754;10.110;2023-11-21T08:50:17;-0.67;82.47
65291;SHT30;51893;59.754;10.110;2023-11-21T08:52:47;-0.59;82.35
65291;SHT30;51893;59.754;10.110;2023-11-21T08:55:16;-0.56;82.31
65291;SHT30;51893;59.754;10.110;2023-11-21T08:57:45;-0.50;82.40
65291;SHT30;51893;59.754;10.110;2023-11-21T09:00:17;-0.46;82.40
65291;SHT30;51893;59.754;10.110;2023-11-21T09:02:46;-0.43;82.39
65291;SHT30;51893;59.754;10.110;2023-11-21T09:05:17;-0.48;82.39
65291;SHT30;51893;59.754;10.110;2023-11-21T09:07:45;-0.49;82.54
65291;SHT30;51893;59.754;10.110;2023-11-21T09:10:14;-0.47;82.60
65291;SHT30;51893;59.754;10.110;2023-11-21T09:12:42;-0.47;82.58
65291;SHT30;51893;59.754;10.110;2023-11-21T09:15:12;-0.45;82.52
65291;SHT30;51893;59.754;10.110;2023-11-21T09:17:42;-0.41;82.50
65291;SHT30;51893;59.754;10.110;2023-11-21T09:20:12;-0.33;82.52
65291;SHT30;51893;59.754;10.110;2023-11-21T09:22:43;-0.24;82.40
65291;SHT30;51893;59.754;10.110;2023-11-21T09:25:12;-0.18;82.30
65291;SHT30;51893;59.754;10.110;2023-11-21T09:27:41;-0.14;82.24
65291;SHT30;51893;59.754;10.110;2023-11-21T09:30:13;-0.18;82.27
65291;SHT30;51893;59.754;10.110;2023-11-21T09:32:44;-0.22;82.55
65291;SHT30;51893;59.754;10.110;2023-11-21T09:35:15;-0.26;82.72
65291;SHT30;51893;59.754;10.110;2023-11-21T09:37:48;-0.26;82.92
65291;SHT30;51893;59.754;10.110;2023-11-21T09:40:17;-0.20;83.05
65291;SHT30;51893;59.754;10.110;2023-11-21T09:42:54;-0.12;83.05
65291;SHT30;51893;59.754;10.110;2023-11-21T09:45:28;-0.06;83.06
65291;SHT30;51893;59.754;10.110;2023-11-21T09:48:03;0.00;83.00
65291;SHT30;51893;59.754;10.110;2023-11-21T09:50:33;0.07;82.98
65291;SHT30;51893;59.754;10.110;2023-11-21T09:53:18;0.17;82.85
65291;SHT30;51893;59.754;10.110;2023-11-21T09:55:55;0.22;82.64
65291;SHT30;51893;59.754;10.110;2023-11-21T09:58:26;0.24;82.54
65291;SHT30;51893;59.754;10.110;2023-11-21T10:00:55;0.28;82.51
65291;SHT30;51893;59.754;10.110;2023-11-21T10:03:30;0.35;82.50
65291;SHT30;51893;59.754;10.110;2023-11-21T10:06:00;0.43;82.40
65291;SHT30;51893;59.754;10.110;2023-11-21T10:08:32;0.48;82.33
65291;SHT30;51893;59.754;10.110;2023-11-21T10:11:17;0.47;82.18
65291;SHT30;51893;59.754;10.110;2023-11-21T10:13:47;0.48;82.10
65291;SHT30;51893;59.754;10.110;2023-11-21T10:16:23;0.49;82.06
65291;SHT30;51893;59.754;10.110;2023-11-21T10:18:55;0.50;81.97
65291;SHT30;51893;59.754;10.110;2023-11-21T10:21:40;0.54;81.90
65291;SHT30;51893;59.754;10.110;2023-11-21T10:24:08;0.57;81.91
65291;SHT30;51893;59.754;10.110;2023-11-21T10:26:36;0.64;81.82
65291;SHT30;51893;59.754;10.110;2023-11-21T10:29:22;0.73;81.80
65291;SHT30;51893;59.754;10.110;2023-11-21T10:31:52;0.74;81.74
65291;SHT30;51893;59.754;10.110;2023-11-21T10:34:24;0.73;81.74
65291;SHT30;51893;59.754;10.110;2023-11-21T10:36:52;0.75;81.75
65291;SHT30;51893;59.754;10.110;2023-11-21T10:39:20;0.75;81.68
65291;SHT30;51893;59.754;10.110;2023-11-21T10:41:51;0.79;81.57
65291;SHT30;51893;59.754;10.110;2023-11-21T10:44:20;0.80;81.54
65291;SHT30;51893;59.754;10.110;2023-11-21T10:46:50;0.82;81.56
65291;SHT30;51893;59.754;10.110;2023-11-21T10:49:27;0.87;81.51
65291;SHT30;51893;59.754;10.110;2023-11-21T10:51:56;0.93;81.44
65291;SHT30;51893;59.754;10.110;2023-11-21T10:54:26;0.97;81.27
65291;SHT30;51893;59.754;10.110;2023-11-21T10:56:58;1.00;81.21
65291;SHT30;51893;59.754;10.110;2023-11-21T10:59:29;1.01;81.10
65291;SHT30;51893;59.754;10.110;2023-11-21T11:02:01;1.07;81.02
65291;SHT30;51893;59.754;10.110;2023-11-21T11:04:48;1.12;80.85
65291;SHT30;51893;59.754;10.110;2023-11-21T11:07:18;1.15;80.84
65291;SHT30;51893;59.754;10.110;2023-11-21T11:09:52;1.19;80.68
65291;SHT30;51893;59.754;10.110;2023-11-21T11:12:23;1.16;80.47
65291;SHT30;51893;59.754;10.110;2023-11-21T11:14:53;1.13;80.49
65291;SHT30;51893;59.754;10.110;2023-11-21T11:17:24;1.06;80.33
65291;SHT30;51893;59.754;10.110;2023-11-21T11:19:54;0.98;80.39
65291;SHT30;51893;59.754;10.110;2023-11-21T11:22:29;1.02;80.52
65291;SHT30;51893;59.754;10.110;2023-11-21T11:28:14;1.19;80.27
65291;SHT30;51893;59.754;10.110;2023-11-21T11:33:43;1.15;80.14
65291;SHT30;51893;59.754;10.110;2023-11-21T11:36:29;1.07;80.25
65291;SHT30;51893;59.754;10.110;2023-11-21T11:39:05;1.02;80.30
65291;SHT30;51893;59.754;10.110;2023-11-21T11:42:01;1.02;80.48
65291;SHT30;51893;59.754;10.110;2023-11-21T11:47:14;1.04;80.60
65291;SHT30;51893;59.754;10.110;2023-11-21T11:52:32;1.15;80.67
65291;SHT30;51893;59.754;10.110;2023-11-21T11:55:05;1.23;80.69
65291;SHT30;51893;59.754;10.110;2023-11-21T11:57:52;1.24;80.64
65291;SHT30;51893;59.754;10.110;2023-11-21T12:02:58;1.26;80.71
65291;SHT30;51893;59.754;10.110;2023-11-21T12:05:33;1.25;80.59
65291;SHT30;51893;59.754;10.110;2023-11-21T12:08:12;1.12;80.46
65291;SHT30;51893;59.754;10.110;2023-11-21T12:10:42;1.02;80.54
65291;SHT30;51893;59.754;10.110;2023-11-21T12:13:14;0.99;80.62
65291;SHT30;51893;59.754;10.110;2023-11-21T12:15:45;1.00;80.72
65291;SHT30;51893;59.754;10.110;2023-11-21T12:18:13;1.03;80.72
65291;SHT30;51893;59.754;10.110;2023-11-21T12:20:41;1.04;80.79
65291;SHT30;51893;59.754;10.110;2023-11-21T12:23:10;1.07;80.75
65291;SHT30;51893;59.754;10.110;2023-11-21T12:25:40;1.05;80.70
65291;SHT30;51893;59.754;10.110;2023-11-21T12:28:10;1.05;80.67
65291;SHT30;51893;59.754;10.110;2023-11-21T12:30:40;1.03;80.64
65291;SHT30;51893;59.754;10.110;2023-11-21T12:33:10;1.10;80.70
65291;SHT30;51893;59.754;10.110;2023-11-21T12:35:41;1.14;80.65
65291;SHT30;51893;59.754;10.110;2023-11-21T12:38:14;1.21;80.70
65291;SHT30;51893;59.754;10.110;2023-11-21T12:40:45;1.29;80.52
65291;SHT30;51893;59.754;10.110;2023-11-21T12:43:15;1.34;80.42
65291;SHT30;51893;59.754;10.110;2023-11-21T12:45:48;1.36;80.33
65291;SHT30;51893;59.754;10.110;2023-11-21T12:48:17;1.38;80.23
65291;SHT30;51893;59.754;10.110;2023-11-21T12:50:52;1.39;80.15
65291;SHT30;51893;59.754;10.110;2023-11-21T12:53:20;1.42;80.01
65291;SHT30;51893;59.754;10.110;2023-11-21T12:55:49;1.37;79.81
65291;SHT30;51893;59.754;10.110;2023-11-21T12:58:19;1.35;79.85
65291;SHT30;51893;59.754;10.110;2023-11-21T13:00:48;1.30;79.73
65291;SHT30;51893;59.754;10.110;2023-11-21T13:03:17;1.27;79.71
65291;SHT30;51893;59.754;10.110;2023-11-21T13:05:48;1.22;79.65
65291;SHT30;51893;59.754;10.110;2023-11-21T13:08:21;1.19;79.65
65291;SHT30;51893;59.754;10.110;2023-11-21T13:10:53;1.23;79.79
65291;SHT30;51893;59.754;10.110;2023-11-21T13:13:27;1.29;79.71
65291;SHT30;51893;59.754;10.110;2023-11-21T13:16:01;1.34;79.64
65291;SHT30;51893;59.754;10.110;2023-11-21T13:18:32;1.28;79.55
65291;SHT30;51893;59.754;10.110;2023-11-21T13:21:03;1.19;79.62
65291;SHT30;51893;59.754;10.110;2023-11-21T13:23:41;1.12;79.87
65291;SHT30;51893;59.754;10.110;2023-11-21T13:26:10;1.11;79.99
65291;SHT30;51893;59.754;10.110;2023-11-21T13:28:41;1.16;80.09
65291;SHT30;51893;59.754;10.110;2023-11-21T13:31:14;1.15;80.00
65291;SHT30;51893;59.754;10.110;2023-11-21T13:33:54;1.14;80.11
65291;SHT30;51893;59.754;10.110;2023-11-21T13:36:25;1.11;80.10
65291;SHT30;51893;59.754;10.110;2023-11-21T13:38:53;1.12;80.21
65291;SHT30;51893;59.754;10.110;2023-11-21T13:41:22;1.12;80.19
65291;SHT30;51893;59.754;10.110;2023-11-21T13:43:58;1.13;80.20
65291;SHT30;51893;59.754;10.110;2023-11-21T13:46:43;1.12;80.20
65291;SHT30;51893;59.754;10.110;2023-11-21T13:49:14;1.15;80.37
65291;SHT30;51893;59.754;10.110;2023-11-21T13:51:43;1.15;80.29
65291;SHT30;51893;59.754;10.110;2023-11-21T13:54:19;1.11;80.28
65291;SHT30;51893;59.754;10.110;2023-11-21T13:56:51;1.09;80.38
65291;SHT30;51893;59.754;10.110;2023-11-21T13:59:20;1.09;80.49
65291;SHT30;51893;59.754;10.110;2023-11-21T14:01:59;1.15;80.60
65291;SHT30;51893;59.754;10.110;2023-11-21T14:04:28;1.23;80.56
65291;SHT30;51893;59.754;10.110;2023-11-21T14:07:14;1.32;80.33
65291;SHT30;51893;59.754;10.110;2023-11-21T14:09:54;1.35;80.39
65291;SHT30;51893;59.754;10.110;2023-11-21T14:12:22;1.39;80.36
65291;SHT30;51893;59.754;10.110;2023-11-21T14:14:53;1.42;80.28
65291;SHT30;51893;59.754;10.110;2023-11-21T14:17:22;1.37;80.20
65291;SHT30;51893;59.754;10.110;2023-11-21T14:19:53;1.31;80.17
65291;SHT30;51893;59.754;10.110;2023-11-21T14:22:31;1.27;80.25
65291;SHT30;51893;59.754;10.110;2023-11-21T14:25:01;1.23;80.33
65291;SHT30;51893;59.754;10.110;2023-11-21T14:27:32;1.19;80.44
65291;SHT30;51893;59.754;10.110;2023-11-21T14:30:03;1.21;80.49
65291;SHT30;51893;59.754;10.110;2023-11-21T14:32:32;1.18;80.58
65291;SHT30;51893;59.754;10.110;2023-11-21T14:35:00;1.19;80.63
65291;SHT30;51893;59.754;10.110;2023-11-21T14:37:34;1.19;80.59
65291;SHT30;51893;59.754;10.110;2023-11-21T14:40:03;1.13;80.57
65291;SHT30;51893;59.754;10.110;2023-11-21T14:42:36;1.09;80.59
65291;SHT30;51893;59.754;10.110;2023-11-21T14:45:10;1.13;80.69
65291;SHT30;51893;59.754;10.110;2023-11-21T14:47:40;1.12;80.63
65291;SHT30;51893;59.754;10.110;2023-11-21T14:50:14;1.11;80.67
65291;SHT30;51893;59.754;10.110;2023-11-21T14:53:02;1.15;80.73
65291;SHT30;51893;59.754;10.110;2023-11-21T14:55:33;1.18;80.68
65291;SHT30;51893;59.754;10.110;2023-11-21T14:58:17;1.15;80.59
65291;SHT30;51893;59.754;10.110;2023-11-21T15:00:56;1.11;80.64
65291;SHT30;51893;59.754;10.110;2023-11-21T15:03:28;1.12;80.70
65291;SHT30;51893;59.754;10.110;2023-11-21T15:06:03;1.12;80.70
65291;SHT30;51893;59.754;10.110;2023-11-21T15:08:52;1.13;80.70
65291;SHT30;51893;59.754;10.110;2023-11-21T15:11:45;1.15;80.78
65291;SHT30;51893;59.754;10.110;2023-11-21T15:14:15;1.17;80.79
65291;SHT30;51893;59.754;10.110;2023-11-21T15:16:49;1.18;80.81
65291;SHT30;51893;59.754;10.110;2023-11-21T15:19:23;1.17;80.74
65291;SHT30;51893;59.754;10.110;2023-11-21T15:21:54;1.17;80.87
65291;SHT30;51893;59.754;10.110;2023-11-21T15:24:22;1.16;80.90
65291;SHT30;51893;59.754;10.110;2023-11-21T15:26:51;1.21;81.03
65291;SHT30;51893;59.754;10.110;2023-11-21T15:29:19;1.22;80.77
65291;SHT30;51893;59.754;10.110;2023-11-21T15:31:51;1.31;80.76
65291;SHT30;51893;59.754;10.110;2023-11-21T15:34:24;1.33;80.73
65291;SHT30;51893;59.754;10.110;2023-11-21T15:36:56;1.34;80.77
65291;SHT30;51893;59.754;10.110;2023-11-21T15:39:25;1.35;80.87
65291;SHT30;51893;59.754;10.110;2023-11-21T15:41:58;1.37;80.83
65291;SHT30;51893;59.754;10.110;2023-11-21T15:44:27;1.36;80.88
65291;SHT30;51893;59.754;10.110;2023-11-21T15:46:56;1.34;80.89
65291;SHT30;51893;59.754;10.110;2023-11-21T15:49:26;1.33;80.63
65291;SHT30;51893;59.754;10.110;2023-11-21T15:51:56;1.30;80.36
65291;SHT30;51893;59.754;10.110;2023-11-21T15:54:31;1.25;80.02
65291;SHT30;51893;59.754;10.110;2023-11-21T15:56:59;1.19;79.95
65291;SHT30;51893;59.754;10.110;2023-11-21T15:59:28;1.22;80.06